sensor_id;sensor_type;location;lat;lon;timestamp;P1;durP1;ratioP1;P2;durP2;ratioP2
18983;SDS011;9626;52.552;13.436;2022-10-17T00:02:14;12.00;;;7.07;;
18983;SDS011;9626;52.552;13.436;2022-10-17T00:04:40;11.33;;;6.60;;
18983;SDS011;9626;52.552;13.436;2022-10-17T00:07:06;12.43;;;6.73;;
18983;SDS011;9626;52.552;13.436;2022-10-17T00:09:31;11.27;;;7.03;;
18983;SDS011;9626;52.552;13.436;2022-10-17T00:11:57;8.33;;;6.03;;
18983;SDS011;9626;52.552;13.436;2022-10-17T00:14:22;8.83;;;6.53;;
18983;SDS011;9626;52.552;13.436;2022-10-17T00:16:48;8.87;;;6.70;;
18983;SDS011;9626;52.552;13.436;2022-10-17T00:19:14;8.13;;;6.00;;
18983;SDS011;9626;52.552;13.436;2022-10-17T00:21:39;8.33;;;5.73;;
18983;SDS011;9626;52.552;13.436;2022-10-17T00:24:05;7.30;;;6.07;;
18983;SDS011;9626;52.552;13.436;2022-10-17T00:26:30;11.30;;;5.87;;
18983;SDS011;9626;52.552;13.436;2022-10-17T00:28:56;9.73;;;5.67;;
18983;SDS011;9626;52.552;13.436;2022-10-17T00:31:22;9.23;;;5.23;;
18983;SDS011;9626;52.552;13.436;2022-10-17T00:33:48;7.87;;;4.93;;
18983;SDS011;9626;52.552;13.436;2022-10-17T00:36:16;7.23;;;5.97;;
18983;SDS011;9626;52.552;13.436;2022-10-17T00:38:49;9.07;;;5.43;;
18983;SDS011;9626;52.552;13.436;2022-10-17T00:41:17;7.60;;;4.87;;
18983;SDS011;9626;52.552;13.436;2022-10-17T00:43:54;7.37;;;5.37;;
18983;SDS011;9626;52.552;13.436;2022-10-17T00:46:20;8.17;;;4.87;;
18983;SDS011;9626;52.552;13.436;2022-10-17T00:48:47;8.47;;;5.27;;
18983;SDS011;9626;52.552;13.436;2022-10-17T00:51:15;5.80;;;4.77;;
18983;SDS011;9626;52.552;13.436;2022-10-17T00:53:43;6.93;;;5.23;;
18983;SDS011;9626;52.552;13.436;2022-10-17T00:56:09;8.60;;;5.33;;
18983;SDS011;9626;52.552;13.436;2022-10-17T00:58:35;7.20;;;4.83;;
18983;SDS011;9626;52.552;13.436;2022-10-17T01:01:01;7.33;;;5.10;;
18983;SDS011;9626;52.552;13.436;2022-10-17T01:03:27;7.47;;;5.17;;
18983;SDS011;9626;52.552;13.436;2022-10-17T01:05:52;6.70;;;5.23;;
18983;SDS011;9626;52.552;13.436;2022-10-17T01:08:18;5.90;;;4.67;;
18983;SDS011;9626;52.552;13.436;2022-10-17T01:10:48;6.83;;;5.07;;
18983;SDS011;9626;52.552;13.436;2022-10-17T01:15:58;7.40;;;5.00;;
18983;SDS011;9626;52.552;13.436;2022-10-17T01:27:36;7.67;;;4.97;;
18983;SDS011;9626;52.552;13.436;2022-10-17T01:35:40;5.27;;;3.80;;
18983;SDS011;9626;52.552;13.436;2022-10-17T01:41:15;4.30;;;3.90;;
18983;SDS011;9626;52.552;13.436;2022-10-17T01:43:53;4.37;;;3.53;;
18983;SDS011;9626;52.552;13.436;2022-10-17T01:46:32;4.97;;;3.33;;
18983;SDS011;9626;52.552;13.436;2022-10-17T01:49:00;3.80;;;3.30;;
18983;SDS011;9626;52.552;13.436;2022-10-17T01:51:29;3.67;;;3.00;;
18983;SDS011;9626;52.552;13.436;2022-10-17T01:54:44;4.83;;;3.27;;
18983;SDS011;9626;52.552;13.436;2022-10-17T01:56:58;3.53;;;2.90;;
18983;SDS011;9626;52.552;13.436;2022-10-17T01:59:30;3.20;;;2.90;;
18983;SDS011;9626;52.552;13.436;2022-10-17T02:02:04;5.20;;;3.00;;
18983;SDS011;9626;52.552;13.436;2022-10-17T02:04:31;3.20;;;2.90;;
18983;SDS011;9626;52.552;13.436;2022-10-17T02:07:04;3.57;;;3.13;;
18983;SDS011;9626;52.552;13.436;2022-10-17T02:09:30;3.80;;;2.87;;
18983;SDS011;9626;52.552;13.436;2022-10-17T02:15:02;5.67;;;3.33;;
18983;SDS011;9626;52.552;13.436;2022-10-17T02:25:35;3.80;;;3.23;;
18983;SDS011;9626;52.552;13.436;2022-10-17T02:28:19;3.73;;;2.60;;
18983;SDS011;9626;52.552;13.436;2022-10-17T02:30:53;4.83;;;3.30;;
18983;SDS011;9626;52.552;13.436;2022-10-17T02:33:44;5.70;;;4.67;;
18983;SDS011;9626;52.552;13.436;2022-10-17T02:36:39;3.07;;;2.53;;
18983;SDS011;9626;52.552;13.436;2022-10-17T02:39:09;2.80;;;2.60;;
18983;SDS011;9626;52.552;13.436;2022-10-17T02:41:36;4.27;;;3.77;;
18983;SDS011;9626;52.552;13.436;2022-10-17T02:44:04;5.10;;;3.60;;
18983;SDS011;9626;52.552;13.436;2022-10-17T02:46:31;4.43;;;3.00;;
18983;SDS011;9626;52.552;13.436;2022-10-17T02:49:20;6.00;;;3.40;;
18983;SDS011;9626;52.552;13.436;2022-10-17T02:52:11;6.20;;;3.90;;
18983;SDS011;9626;52.552;13.436;2022-10-17T02:57:43;7.20;;;3.40;;
18983;SDS011;9626;52.552;13.436;2022-10-17T03:00:05;3.80;;;3.23;;
18983;SDS011;9626;52.552;13.436;2022-10-17T03:02:43;4.83;;;3.10;;
18983;SDS011;9626;52.552;13.436;2022-10-17T03:05:11;3.70;;;2.90;;
18983;SDS011;9626;52.552;13.436;2022-10-17T03:07:40;4.87;;;2.83;;
18983;SDS011;9626;52.552;13.436;2022-10-17T03:10:06;6.47;;;2.97;;
18983;SDS011;9626;52.552;13.436;2022-10-17T03:12:31;4.53;;;3.40;;
18983;SDS011;9626;52.552;13.436;2022-10-17T03:14:57;3.00;;;2.80;;
18983;SDS011;9626;52.552;13.436;2022-10-17T03:17:22;8.40;;;3.17;;
18983;SDS011;9626;52.552;13.436;2022-10-17T03:19:48;5.47;;;3.97;;
18983;SDS011;9626;52.552;13.436;2022-10-17T03:22:14;4.40;;;3.50;;
18983;SDS011;9626;52.552;13.436;2022-10-17T03:24:39;4.17;;;3.77;;
18983;SDS011;9626;52.552;13.436;2022-10-17T03:27:05;5.43;;;3.30;;
18983;SDS011;9626;52.552;13.436;2022-10-17T03:29:30;7.80;;;4.50;;
18983;SDS011;9626;52.552;13.436;2022-10-17T03:31:56;5.93;;;3.87;;
18983;SDS011;9626;52.552;13.436;2022-10-17T03:34:21;4.77;;;4.37;;
18983;SDS011;9626;52.552;13.436;2022-10-17T03:36:47;6.43;;;3.90;;
18983;SDS011;9626;52.552;13.436;2022-10-17T03:39:13;4.17;;;3.57;;
18983;SDS011;9626;52.552;13.436;2022-10-17T03:41:38;7.13;;;5.17;;
18983;SDS011;9626;52.552;13.436;2022-10-17T03:44:04;5.13;;;3.70;;
18983;SDS011;9626;52.552;13.436;2022-10-17T03:46:29;4.40;;;3.93;;
18983;SDS011;9626;52.552;13.436;2022-10-17T03:49:01;5.53;;;3.63;;
18983;SDS011;9626;52.552;13.436;2022-10-17T03:51:31;4.57;;;3.90;;
18983;SDS011;9626;52.552;13.436;2022-10-17T03:53:58;8.70;;;4.37;;
18983;SDS011;9626;52.552;13.436;2022-10-17T03:56:24;5.93;;;4.53;;
18983;SDS011;9626;52.552;13.436;2022-10-17T03:58:50;4.73;;;3.73;;
18983;SDS011;9626;52.552;13.436;2022-10-17T04:01:16;6.10;;;4.87;;
18983;SDS011;9626;52.552;13.436;2022-10-17T04:03:43;4.30;;;3.90;;
18983;SDS011;9626;52.552;13.436;2022-10-17T04:06:12;6.07;;;4.23;;
18983;SDS011;9626;52.552;13.436;2022-10-17T04:08:38;6.40;;;5.00;;
18983;SDS011;9626;52.552;13.436;2022-10-17T04:11:05;4.57;;;4.17;;
18983;SDS011;9626;52.552;13.436;2022-10-17T04:13:32;7.00;;;4.50;;
18983;SDS011;9626;52.552;13.436;2022-10-17T04:15:59;5.40;;;4.30;;
18983;SDS011;9626;52.552;13.436;2022-10-17T04:18:26;5.13;;;4.30;;
18983;SDS011;9626;52.552;13.436;2022-10-17T04:20:52;4.87;;;4.07;;
18983;SDS011;9626;52.552;13.436;2022-10-17T04:23:17;6.20;;;4.47;;
18983;SDS011;9626;52.552;13.436;2022-10-17T04:25:43;4.30;;;3.93;;
18983;SDS011;9626;52.552;13.436;2022-10-17T04:28:09;7.90;;;4.03;;
18983;SDS011;9626;52.552;13.436;2022-10-17T04:30:34;4.80;;;3.83;;
18983;SDS011;9626;52.552;13.436;2022-10-17T04:33:00;4.37;;;3.97;;
18983;SDS011;9626;52.552;13.436;2022-10-17T04:35:25;4.70;;;4.20;;
18983;SDS011;9626;52.552;13.436;2022-10-17T04:37:51;7.73;;;4.17;;
18983;SDS011;9626;52.552;13.436;2022-10-17T04:40:17;4.77;;;4.27;;
18983;SDS011;9626;52.552;13.436;2022-10-17T04:42:42;6.37;;;4.30;;
18983;SDS011;9626;52.552;13.436;2022-10-17T04:45:08;5.43;;;4.33;;
18983;SDS011;9626;52.552;13.436;2022-10-17T04:47:34;5.37;;;4.53;;
18983;SDS011;9626;52.552;13.436;2022-10-17T04:49:59;6.60;;;5.37;;
18983;SDS011;9626;52.552;13.436;2022-10-17T04:52:25;6.87;;;4.67;;
18983;SDS011;9626;52.552;13.436;2022-10-17T04:54:50;6.23;;;4.73;;
18983;SDS011;9626;52.552;13.436;2022-10-17T04:57:16;4.83;;;4.00;;
18983;SDS011;9626;52.552;13.436;2022-10-17T04:59:42;5.00;;;4.53;;
18983;SDS011;9626;52.552;13.436;2022-10-17T05:02:08;6.27;;;4.57;;
18983;SDS011;9626;52.552;13.436;2022-10-17T05:04:34;5.70;;;4.10;;
18983;SDS011;9626;52.552;13.436;2022-10-17T05:06:59;4.60;;;4.13;;
18983;SDS011;9626;52.552;13.436;2022-10-17T05:09:25;6.40;;;4.83;;
18983;SDS011;9626;52.552;13.436;2022-10-17T05:11:51;5.37;;;4.07;;
18983;SDS011;9626;52.552;13.436;2022-10-17T05:14:16;5.53;;;4.20;;
18983;SDS011;9626;52.552;13.436;2022-10-17T05:16:42;7.47;;;4.60;;
18983;SDS011;9626;52.552;13.436;2022-10-17T05:19:07;6.00;;;4.57;;
18983;SDS011;9626;52.552;13.436;2022-10-17T05:21:33;6.43;;;4.43;;
18983;SDS011;9626;52.552;13.436;2022-10-17T05:24:03;6.20;;;4.70;;
18983;SDS011;9626;52.552;13.436;2022-10-17T05:26:30;5.23;;;4.47;;
18983;SDS011;9626;52.552;13.436;2022-10-17T05:28:55;5.97;;;4.70;;
18983;SDS011;9626;52.552;13.436;2022-10-17T05:31:22;6.60;;;4.23;;
18983;SDS011;9626;52.552;13.436;2022-10-17T05:33:48;4.17;;;3.87;;
18983;SDS011;9626;52.552;13.436;2022-10-17T05:36:13;4.60;;;4.20;;
18983;SDS011;9626;52.552;13.436;2022-10-17T05:38:40;5.93;;;4.80;;
18983;SDS011;9626;52.552;13.436;2022-10-17T05:41:05;5.83;;;4.33;;
18983;SDS011;9626;52.552;13.436;2022-10-17T05:43:31;4.87;;;4.20;;
18983;SDS011;9626;52.552;13.436;2022-10-17T05:45:57;4.80;;;4.30;;
18983;SDS011;9626;52.552;13.436;2022-10-17T05:48:23;10.17;;;4.97;;
18983;SDS011;9626;52.552;13.436;2022-10-17T05:50:55;4.53;;;4.17;;
18983;SDS011;9626;52.552;13.436;2022-10-17T05:53:22;5.23;;;4.37;;
18983;SDS011;9626;52.552;13.436;2022-10-17T05:55:54;7.63;;;4.60;;
18983;SDS011;9626;52.552;13.436;2022-10-17T05:58:23;5.43;;;4.60;;
18983;SDS011;9626;52.552;13.436;2022-10-17T06:00:49;6.63;;;4.40;;
18983;SDS011;9626;52.552;13.436;2022-10-17T06:03:14;5.30;;;4.80;;
18983;SDS011;9626;52.552;13.436;2022-10-17T06:05:40;7.90;;;4.60;;
18983;SDS011;9626;52.552;13.436;2022-10-17T06:08:05;6.93;;;4.93;;
18983;SDS011;9626;52.552;13.436;2022-10-17T06:10:31;6.37;;;4.63;;
18983;SDS011;9626;52.552;13.436;2022-10-17T06:12:57;7.00;;;4.20;;
18983;SDS011;9626;52.552;13.436;2022-10-17T06:15:22;6.67;;;4.37;;
18983;SDS011;9626;52.552;13.436;2022-10-17T06:17:47;5.60;;;4.47;;
18983;SDS011;9626;52.552;13.436;2022-10-17T06:20:13;4.93;;;4.20;;
18983;SDS011;9626;52.552;13.436;2022-10-17T06:22:39;5.40;;;4.37;;
18983;SDS011;9626;52.552;13.436;2022-10-17T06:25:04;5.17;;;4.67;;
18983;SDS011;9626;52.552;13.436;2022-10-17T06:27:30;4.63;;;4.23;;
18983;SDS011;9626;52.552;13.436;2022-10-17T06:29:55;5.60;;;4.73;;
18983;SDS011;9626;52.552;13.436;2022-10-17T06:32:21;5.20;;;4.80;;
18983;SDS011;9626;52.552;13.436;2022-10-17T06:34:46;5.87;;;4.67;;
18983;SDS011;9626;52.552;13.436;2022-10-17T06:37:12;7.67;;;4.90;;
18983;SDS011;9626;52.552;13.436;2022-10-17T06:39:37;8.17;;;5.37;;
18983;SDS011;9626;52.552;13.436;2022-10-17T06:42:03;7.00;;;5.13;;
18983;SDS011;9626;52.552;13.436;2022-10-17T06:44:29;5.00;;;4.27;;
18983;SDS011;9626;52.552;13.436;2022-10-17T06:46:59;8.43;;;4.40;;
18983;SDS011;9626;52.552;13.436;2022-10-17T06:49:25;8.90;;;4.47;;
18983;SDS011;9626;52.552;13.436;2022-10-17T06:51:51;8.47;;;5.03;;
18983;SDS011;9626;52.552;13.436;2022-10-17T06:54:17;6.43;;;4.47;;
18983;SDS011;9626;52.552;13.436;2022-10-17T06:56:42;9.90;;;4.87;;
18983;SDS011;9626;52.552;13.436;2022-10-17T06:59:08;5.67;;;4.93;;
18983;SDS011;9626;52.552;13.436;2022-10-17T07:01:34;8.37;;;4.83;;
18983;SDS011;9626;52.552;13.436;2022-10-17T07:04:00;8.20;;;4.73;;
18983;SDS011;9626;52.552;13.436;2022-10-17T07:06:26;6.00;;;4.20;;
18983;SDS011;9626;52.552;13.436;2022-10-17T07:08:51;8.43;;;5.30;;
18983;SDS011;9626;52.552;13.436;2022-10-17T07:11:35;5.80;;;4.90;;
18983;SDS011;9626;52.552;13.436;2022-10-17T07:14:01;6.20;;;4.97;;
18983;SDS011;9626;52.552;13.436;2022-10-17T07:16:27;5.13;;;4.57;;
18983;SDS011;9626;52.552;13.436;2022-10-17T07:18:52;5.97;;;4.63;;
18983;SDS011;9626;52.552;13.436;2022-10-17T07:21:18;5.87;;;4.90;;
18983;SDS011;9626;52.552;13.436;2022-10-17T07:23:44;6.17;;;4.67;;
18983;SDS011;9626;52.552;13.436;2022-10-17T07:26:14;7.07;;;4.60;;
18983;SDS011;9626;52.552;13.436;2022-10-17T07:28:42;7.47;;;4.33;;
18983;SDS011;9626;52.552;13.436;2022-10-17T07:31:10;7.90;;;4.67;;
18983;SDS011;9626;52.552;13.436;2022-10-17T07:33:40;6.53;;;4.23;;
18983;SDS011;9626;52.552;13.436;2022-10-17T07:36:10;8.60;;;4.70;;
18983;SDS011;9626;52.552;13.436;2022-10-17T07:38:36;4.60;;;4.10;;
18983;SDS011;9626;52.552;13.436;2022-10-17T07:41:02;9.03;;;4.37;;
18983;SDS011;9626;52.552;13.436;2022-10-17T07:43:30;6.70;;;4.47;;
18983;SDS011;9626;52.552;13.436;2022-10-17T07:45:56;5.93;;;4.53;;
18983;SDS011;9626;52.552;13.436;2022-10-17T07:48:22;7.70;;;4.53;;
18983;SDS011;9626;52.552;13.436;2022-10-17T07:50:48;9.70;;;4.57;;
18983;SDS011;9626;52.552;13.436;2022-10-17T07:53:14;7.30;;;4.00;;
18983;SDS011;9626;52.552;13.436;2022-10-17T07:55:39;7.83;;;4.50;;
18983;SDS011;9626;52.552;13.436;2022-10-17T07:58:06;6.90;;;3.80;;
18983;SDS011;9626;52.552;13.436;2022-10-17T08:00:33;6.13;;;3.90;;
18983;SDS011;9626;52.552;13.436;2022-10-17T08:02:59;5.23;;;3.70;;
18983;SDS011;9626;52.552;13.436;2022-10-17T08:05:25;7.10;;;4.20;;
18983;SDS011;9626;52.552;13.436;2022-10-17T08:07:50;4.73;;;3.83;;
18983;SDS011;9626;52.552;13.436;2022-10-17T08:10:16;8.03;;;3.80;;
18983;SDS011;9626;52.552;13.436;2022-10-17T08:12:42;5.37;;;3.67;;
18983;SDS011;9626;52.552;13.436;2022-10-17T08:15:08;8.30;;;4.03;;
18983;SDS011;9626;52.552;13.436;2022-10-17T08:17:52;5.90;;;3.73;;
18983;SDS011;9626;52.552;13.436;2022-10-17T08:20:19;6.73;;;3.73;;
18983;SDS011;9626;52.552;13.436;2022-10-17T08:22:50;6.47;;;3.80;;
18983;SDS011;9626;52.552;13.436;2022-10-17T08:25:16;5.73;;;3.80;;
18983;SDS011;9626;52.552;13.436;2022-10-17T08:27:42;6.73;;;3.73;;
18983;SDS011;9626;52.552;13.436;2022-10-17T08:30:07;4.20;;;3.40;;
18983;SDS011;9626;52.552;13.436;2022-10-17T08:32:33;6.23;;;3.67;;
18983;SDS011;9626;52.552;13.436;2022-10-17T08:34:59;3.93;;;3.40;;
18983;SDS011;9626;52.552;13.436;2022-10-17T08:37:25;4.97;;;3.40;;
18983;SDS011;9626;52.552;13.436;2022-10-17T08:39:50;7.47;;;3.50;;
18983;SDS011;9626;52.552;13.436;2022-10-17T08:47:44;4.53;;;3.30;;
18983;SDS011;9626;52.552;13.436;2022-10-17T08:55:45;5.22;;;3.22;;
18983;SDS011;9626;52.552;13.436;2022-10-17T08:58:13;3.75;;;3.35;;
18983;SDS011;9626;52.552;13.436;2022-10-17T09:00:45;7.80;;;3.95;;
18983;SDS011;9626;52.552;13.436;2022-10-17T09:06:11;6.78;;;3.30;;
18983;SDS011;9626;52.552;13.436;2022-10-17T09:08:46;7.60;;;3.22;;
18983;SDS011;9626;52.552;13.436;2022-10-17T09:11:33;7.13;;;3.50;;
18983;SDS011;9626;52.552;13.436;2022-10-17T09:19:18;5.32;;;2.92;;
18983;SDS011;9626;52.552;13.436;2022-10-17T09:21:52;5.57;;;3.28;;
18983;SDS011;9626;52.552;13.436;2022-10-17T09:24:27;3.63;;;2.65;;
18983;SDS011;9626;52.552;13.436;2022-10-17T09:27:03;4.15;;;2.83;;
18983;SDS011;9626;52.552;13.436;2022-10-17T09:29:29;3.53;;;2.63;;
18983;SDS011;9626;52.552;13.436;2022-10-17T09:32:10;9.35;;;2.90;;
18983;SDS011;9626;52.552;13.436;2022-10-17T09:34:41;10.40;;;3.08;;
18983;SDS011;9626;52.552;13.436;2022-10-17T09:37:11;5.63;;;2.78;;
18983;SDS011;9626;52.552;13.436;2022-10-17T09:39:39;5.90;;;2.90;;
18983;SDS011;9626;52.552;13.436;2022-10-17T09:42:07;9.27;;;2.90;;
18983;SDS011;9626;52.552;13.436;2022-10-17T09:44:39;3.97;;;2.67;;
18983;SDS011;9626;52.552;13.436;2022-10-17T09:47:21;6.78;;;2.60;;
18983;SDS011;9626;52.552;13.436;2022-10-17T09:49:48;6.65;;;2.58;;
18983;SDS011;9626;52.552;13.436;2022-10-17T09:52:28;3.38;;;2.70;;
18983;SDS011;9626;52.552;13.436;2022-10-17T09:55:02;5.70;;;2.72;;
18983;SDS011;9626;52.552;13.436;2022-10-17T10:00:20;6.57;;;2.40;;
18983;SDS011;9626;52.552;13.436;2022-10-17T10:02:49;5.07;;;2.47;;
18983;SDS011;9626;52.552;13.436;2022-10-17T10:05:18;3.28;;;2.63;;
18983;SDS011;9626;52.552;13.436;2022-10-17T10:08:00;10.63;;;2.90;;
18983;SDS011;9626;52.552;13.436;2022-10-17T10:10:28;3.63;;;2.70;;
18983;SDS011;9626;52.552;13.436;2022-10-17T10:15:39;13.00;;;9.75;;
18983;SDS011;9626;52.552;13.436;2022-10-17T10:18:40;4.72;;;3.00;;
18983;SDS011;9626;52.552;13.436;2022-10-17T10:21:10;3.33;;;2.42;;
18983;SDS011;9626;52.552;13.436;2022-10-17T10:23:42;4.32;;;2.60;;
18983;SDS011;9626;52.552;13.436;2022-10-17T10:28:55;5.57;;;2.50;;
18983;SDS011;9626;52.552;13.436;2022-10-17T10:31:25;5.43;;;2.65;;
18983;SDS011;9626;52.552;13.436;2022-10-17T10:33:53;6.32;;;3.05;;
18983;SDS011;9626;52.552;13.436;2022-10-17T10:36:19;3.38;;;2.65;;
18983;SDS011;9626;52.552;13.436;2022-10-17T10:38:54;5.95;;;3.03;;
18983;SDS011;9626;52.552;13.436;2022-10-17T10:41:21;5.80;;;2.83;;
18983;SDS011;9626;52.552;13.436;2022-10-17T10:43:48;8.98;;;3.63;;
18983;SDS011;9626;52.552;13.436;2022-10-17T10:48:55;6.15;;;3.22;;
18983;SDS011;9626;52.552;13.436;2022-10-17T10:54:07;6.38;;;2.67;;
18983;SDS011;9626;52.552;13.436;2022-10-17T10:56:51;8.18;;;2.72;;
18983;SDS011;9626;52.552;13.436;2022-10-17T11:01:54;4.65;;;2.58;;
18983;SDS011;9626;52.552;13.436;2022-10-17T11:06:59;6.15;;;2.78;;
18983;SDS011;9626;52.552;13.436;2022-10-17T11:09:37;2.83;;;2.13;;
18983;SDS011;9626;52.552;13.436;2022-10-17T11:14:57;3.88;;;2.40;;
18983;SDS011;9626;52.552;13.436;2022-10-17T11:17:39;3.13;;;2.17;;
18983;SDS011;9626;52.552;13.436;2022-10-17T11:20:19;3.55;;;3.25;;
18983;SDS011;9626;52.552;13.436;2022-10-17T11:22:52;4.78;;;2.63;;
18983;SDS011;9626;52.552;13.436;2022-10-17T11:25:32;5.15;;;3.25;;
18983;SDS011;9626;52.552;13.436;2022-10-17T11:28:00;6.13;;;2.90;;
18983;SDS011;9626;52.552;13.436;2022-10-17T11:30:37;6.03;;;2.63;;
18983;SDS011;9626;52.552;13.436;2022-10-17T11:33:26;4.93;;;2.67;;
18983;SDS011;9626;52.552;13.436;2022-10-17T11:36:08;3.33;;;2.38;;
18983;SDS011;9626;52.552;13.436;2022-10-17T11:38:38;6.00;;;2.17;;
18983;SDS011;9626;52.552;13.436;2022-10-17T11:41:13;5.10;;;2.60;;
18983;SDS011;9626;52.552;13.436;2022-10-17T11:46:24;3.53;;;2.25;;
18983;SDS011;9626;52.552;13.436;2022-10-17T11:51:28;3.47;;;1.90;;
18983;SDS011;9626;52.552;13.436;2022-10-17T12:02:27;2.97;;;2.60;;
18983;SDS011;9626;52.552;13.436;2022-10-17T12:07:47;4.00;;;2.45;;
18983;SDS011;9626;52.552;13.436;2022-10-17T12:15:56;4.68;;;2.40;;
18983;SDS011;9626;52.552;13.436;2022-10-17T12:18:32;3.63;;;2.55;;
18983;SDS011;9626;52.552;13.436;2022-10-17T12:20:59;5.55;;;2.60;;
18983;SDS011;9626;52.552;13.436;2022-10-17T12:33:31;5.63;;;2.33;;
18983;SDS011;9626;52.552;13.436;2022-10-17T12:38:43;5.85;;;2.50;;
18983;SDS011;9626;52.552;13.436;2022-10-17T12:41:10;3.60;;;2.63;;
18983;SDS011;9626;52.552;13.436;2022-10-17T12:44:37;3.80;;;2.30;;
18983;SDS011;9626;52.552;13.436;2022-10-17T12:50:02;5.20;;;2.67;;
18983;SDS011;9626;52.552;13.436;2022-10-17T12:54:57;3.38;;;2.60;;
18983;SDS011;9626;52.552;13.436;2022-10-17T13:00:27;3.10;;;2.38;;
18983;SDS011;9626;52.552;13.436;2022-10-17T13:03:02;4.70;;;2.40;;
18983;SDS011;9626;52.552;13.436;2022-10-17T13:05:52;4.68;;;2.30;;
18983;SDS011;9626;52.552;13.436;2022-10-17T13:08:21;5.53;;;2.53;;
18983;SDS011;9626;52.552;13.436;2022-10-17T13:10:50;4.78;;;2.60;;
18983;SDS011;9626;52.552;13.436;2022-10-17T13:13:19;4.78;;;2.80;;
18983;SDS011;9626;52.552;13.436;2022-10-17T13:15:46;5.35;;;2.53;;
18983;SDS011;9626;52.552;13.436;2022-10-17T13:18:16;3.03;;;2.22;;
18983;SDS011;9626;52.552;13.436;2022-10-17T13:20:52;6.63;;;2.75;;
18983;SDS011;9626;52.552;13.436;2022-10-17T13:23:38;3.53;;;2.40;;
18983;SDS011;9626;52.552;13.436;2022-10-17T13:26:26;7.72;;;3.00;;
18983;SDS011;9626;52.552;13.436;2022-10-17T13:31:43;4.38;;;2.60;;
18983;SDS011;9626;52.552;13.436;2022-10-17T13:34:19;5.60;;;2.50;;
18983;SDS011;9626;52.552;13.436;2022-10-17T13:36:52;5.15;;;2.50;;
18983;SDS011;9626;52.552;13.436;2022-10-17T13:39:21;8.82;;;2.50;;
18983;SDS011;9626;52.552;13.436;2022-10-17T13:41:48;4.82;;;2.40;;
18983;SDS011;9626;52.552;13.436;2022-10-17T13:44:15;7.82;;;2.63;;
18983;SDS011;9626;52.552;13.436;2022-10-17T13:46:43;4.93;;;2.28;;
18983;SDS011;9626;52.552;13.436;2022-10-17T13:49:20;5.72;;;2.42;;
18983;SDS011;9626;52.552;13.436;2022-10-17T13:51:51;3.47;;;2.20;;
18983;SDS011;9626;52.552;13.436;2022-10-17T13:54:37;6.15;;;2.85;;
18983;SDS011;9626;52.552;13.436;2022-10-17T13:57:13;6.38;;;2.28;;
18983;SDS011;9626;52.552;13.436;2022-10-17T13:59:43;8.13;;;2.58;;
18983;SDS011;9626;52.552;13.436;2022-10-17T14:02:35;7.22;;;2.65;;
18983;SDS011;9626;52.552;13.436;2022-10-17T14:05:01;5.00;;;2.83;;
18983;SDS011;9626;52.552;13.436;2022-10-17T14:07:37;5.63;;;2.65;;
18983;SDS011;9626;52.552;13.436;2022-10-17T14:12:44;8.20;;;2.50;;
18983;SDS011;9626;52.552;13.436;2022-10-17T14:15:12;4.55;;;2.60;;
18983;SDS011;9626;52.552;13.436;2022-10-17T14:17:39;4.50;;;2.70;;
18983;SDS011;9626;52.552;13.436;2022-10-17T14:20:05;7.35;;;2.15;;
18983;SDS011;9626;52.552;13.436;2022-10-17T14:22:33;3.17;;;2.30;;
18983;SDS011;9626;52.552;13.436;2022-10-17T14:25:00;11.20;;;2.67;;
18983;SDS011;9626;52.552;13.436;2022-10-17T14:27:28;3.80;;;2.25;;
18983;SDS011;9626;52.552;13.436;2022-10-17T14:30:45;4.03;;;2.70;;
18983;SDS011;9626;52.552;13.436;2022-10-17T14:32:52;4.25;;;2.47;;
18983;SDS011;9626;52.552;13.436;2022-10-17T14:35:20;7.72;;;2.42;;
18983;SDS011;9626;52.552;13.436;2022-10-17T14:37:47;4.13;;;2.20;;
18983;SDS011;9626;52.552;13.436;2022-10-17T14:42:48;3.63;;;2.08;;
18983;SDS011;9626;52.552;13.436;2022-10-17T14:45:35;3.88;;;2.60;;
18983;SDS011;9626;52.552;13.436;2022-10-17T14:48:10;5.57;;;2.47;;
18983;SDS011;9626;52.552;13.436;2022-10-17T14:50:39;3.10;;;2.50;;
18983;SDS011;9626;52.552;13.436;2022-10-17T14:55:37;7.68;;;2.55;;
18983;SDS011;9626;52.552;13.436;2022-10-17T14:58:16;7.05;;;2.40;;
18983;SDS011;9626;52.552;13.436;2022-10-17T15:00:46;7.25;;;2.40;;
18983;SDS011;9626;52.552;13.436;2022-10-17T15:03:12;4.18;;;2.53;;
18983;SDS011;9626;52.552;13.436;2022-10-17T15:05:38;4.75;;;2.67;;
18983;SDS011;9626;52.552;13.436;2022-10-17T15:08:05;3.53;;;2.35;;
18983;SDS011;9626;52.552;13.436;2022-10-17T15:10:37;4.93;;;2.40;;
18983;SDS011;9626;52.552;13.436;2022-10-17T15:13:06;7.65;;;2.58;;
18983;SDS011;9626;52.552;13.436;2022-10-17T15:15:32;2.78;;;2.40;;
18983;SDS011;9626;52.552;13.436;2022-10-17T15:17:59;5.18;;;2.92;;
18983;SDS011;9626;52.552;13.436;2022-10-17T15:20:26;3.33;;;2.38;;
18983;SDS011;9626;52.552;13.436;2022-10-17T15:22:54;4.47;;;2.40;;
18983;SDS011;9626;52.552;13.436;2022-10-17T15:25:20;6.55;;;3.00;;
18983;SDS011;9626;52.552;13.436;2022-10-17T15:27:46;20.13;;;3.30;;
18983;SDS011;9626;52.552;13.436;2022-10-17T15:30:15;4.70;;;2.72;;
18983;SDS011;9626;52.552;13.436;2022-10-17T15:32:46;5.60;;;2.63;;
18983;SDS011;9626;52.552;13.436;2022-10-17T15:35:12;3.88;;;3.13;;
18983;SDS011;9626;52.552;13.436;2022-10-17T15:37:37;8.57;;;3.05;;
18983;SDS011;9626;52.552;13.436;2022-10-17T15:40:04;6.82;;;2.95;;
18983;SDS011;9626;52.552;13.436;2022-10-17T15:42:30;4.72;;;2.83;;
18983;SDS011;9626;52.552;13.436;2022-10-17T15:44:56;8.23;;;2.63;;
18983;SDS011;9626;52.552;13.436;2022-10-17T15:47:26;5.72;;;2.97;;
18983;SDS011;9626;52.552;13.436;2022-10-17T15:49:55;5.28;;;2.70;;
18983;SDS011;9626;52.552;13.436;2022-10-17T15:52:21;5.78;;;3.20;;
18983;SDS011;9626;52.552;13.436;2022-10-17T15:54:47;4.85;;;3.55;;
18983;SDS011;9626;52.552;13.436;2022-10-17T15:57:15;4.40;;;2.88;;
18983;SDS011;9626;52.552;13.436;2022-10-17T15:59:44;6.03;;;3.47;;
18983;SDS011;9626;52.552;13.436;2022-10-17T16:02:14;5.95;;;3.45;;
18983;SDS011;9626;52.552;13.436;2022-10-17T16:04:42;5.60;;;3.15;;
18983;SDS011;9626;52.552;13.436;2022-10-17T16:07:08;4.72;;;3.45;;
18983;SDS011;9626;52.552;13.436;2022-10-17T16:09:34;7.85;;;3.08;;
18983;SDS011;9626;52.552;13.436;2022-10-17T16:12:01;9.27;;;3.17;;
18983;SDS011;9626;52.552;13.436;2022-10-17T16:14:29;7.47;;;2.97;;
18983;SDS011;9626;52.552;13.436;2022-10-17T16:16:56;5.00;;;3.10;;
18983;SDS011;9626;52.552;13.436;2022-10-17T16:19:23;8.93;;;2.90;;
18983;SDS011;9626;52.552;13.436;2022-10-17T16:21:51;5.97;;;3.05;;
18983;SDS011;9626;52.552;13.436;2022-10-17T16:24:18;8.10;;;3.00;;
18983;SDS011;9626;52.552;13.436;2022-10-17T16:26:43;5.78;;;2.83;;
18983;SDS011;9626;52.552;13.436;2022-10-17T16:29:09;8.20;;;2.70;;
18983;SDS011;9626;52.552;13.436;2022-10-17T16:31:35;6.75;;;3.05;;
18983;SDS011;9626;52.552;13.436;2022-10-17T16:34:04;7.60;;;2.92;;
18983;SDS011;9626;52.552;13.436;2022-10-17T16:36:31;4.93;;;3.00;;
18983;SDS011;9626;52.552;13.436;2022-10-17T16:38:57;7.53;;;3.15;;
18983;SDS011;9626;52.552;13.436;2022-10-17T16:41:25;8.02;;;3.42;;
18983;SDS011;9626;52.552;13.436;2022-10-17T16:43:54;6.97;;;3.40;;
18983;SDS011;9626;52.552;13.436;2022-10-17T16:46:20;6.20;;;3.17;;
18983;SDS011;9626;52.552;13.436;2022-10-17T16:48:47;5.03;;;2.72;;
18983;SDS011;9626;52.552;13.436;2022-10-17T16:51:13;4.93;;;2.72;;
18983;SDS011;9626;52.552;13.436;2022-10-17T16:53:40;6.40;;;3.00;;
18983;SDS011;9626;52.552;13.436;2022-10-17T16:56:27;8.25;;;3.65;;
18983;SDS011;9626;52.552;13.436;2022-10-17T16:58:57;5.65;;;3.20;;
18983;SDS011;9626;52.552;13.436;2022-10-17T17:01:24;5.40;;;3.60;;
18983;SDS011;9626;52.552;13.436;2022-10-17T17:03:50;5.47;;;3.50;;
18983;SDS011;9626;52.552;13.436;2022-10-17T17:06:18;8.45;;;4.07;;
18983;SDS011;9626;52.552;13.436;2022-10-17T17:08:49;7.05;;;4.00;;
18983;SDS011;9626;52.552;13.436;2022-10-17T17:11:16;5.70;;;3.90;;